createdAt,value
2023-05-19T00:01:39.118Z,101319.56
2023-05-19T00:03:54.008Z,101317.66
2023-05-19T00:05:59.045Z,101318.63
2023-05-19T00:08:03.213Z,101316.88
2023-05-19T00:10:07.452Z,101315.13
2023-05-19T00:12:11.706Z,101317.84
2023-05-19T00:14:15.697Z,101312.72
2023-05-19T00:16:19.255Z,101305.88
2023-05-19T00:18:23.378Z,101306.72
2023-05-19T00:20:28.079Z,101305.03
2023-05-19T00:22:31.078Z,101313.81
2023-05-19T00:24:34.225Z,101310.28
2023-05-19T00:26:37.566Z,101304.69
2023-05-19T00:28:41.468Z,101304.09
2023-05-19T00:30:44.367Z,101313.47
2023-05-19T00:32:47.480Z,101313.63
2023-05-19T00:34:50.556Z,101312.00
2023-05-19T00:36:54.885Z,101306.41
2023-05-19T00:38:58.019Z,101315.09
2023-05-19T00:41:01.091Z,101313.34
2023-05-19T00:43:05.480Z,101314.78
2023-05-19T00:45:10.824Z,101314.28
2023-05-19T00:47:14.394Z,101315.00
2023-05-19T00:49:17.649Z,101317.28
2023-05-19T00:51:20.917Z,101314.66
2023-05-19T00:53:26.382Z,101307.41
2023-05-19T00:55:30.702Z,101307.56
2023-05-19T00:57:34.013Z,101312.56
2023-05-19T00:59:38.815Z,101314.19
2023-05-19T01:01:43.214Z,101312.34
2023-05-19T01:03:50.427Z,101317.63
2023-05-19T01:05:54.433Z,101312.56
2023-05-19T01:07:57.613Z,101310.59
2023-05-19T01:10:04.509Z,101316.53
2023-05-19T01:12:10.948Z,101308.63
2023-05-19T01:14:14.395Z,101308.78
2023-05-19T01:16:23.535Z,101312.78
2023-05-19T01:18:34.692Z,101311.34
2023-05-19T01:20:41.685Z,101306.94
2023-05-19T01:23:01.699Z,101314.84
2023-05-19T01:25:37.110Z,101314.50
2023-05-19T01:28:07.977Z,101314.25
2023-05-19T01:30:35.146Z,101312.28
2023-05-19T01:32:42.953Z,101316.44
2023-05-19T01:34:47.993Z,101308.09
2023-05-19T01:36:54.854Z,101305.66
2023-05-19T01:39:00.697Z,101303.63
2023-05-19T01:41:05.082Z,101306.25
2023-05-19T01:43:10.016Z,101300.00
2023-05-19T01:45:14.951Z,101303.53
2023-05-19T01:47:19.801Z,101302.38
2023-05-19T01:49:23.825Z,101297.81
2023-05-19T01:51:27.627Z,101293.41
2023-05-19T01:53:30.884Z,101295.13
2023-05-19T01:55:34.577Z,101295.53
2023-05-19T01:57:47.838Z,101300.28
2023-05-19T02:00:05.680Z,101302.03
2023-05-19T02:02:26.224Z,101309.34
2023-05-19T02:04:39.138Z,101311.16
2023-05-19T02:06:51.032Z,101312.81
2023-05-19T02:08:59.718Z,101322.34
2023-05-19T02:11:07.329Z,101313.72
2023-05-19T02:13:12.729Z,101328.47
2023-05-19T02:15:17.977Z,101321.81
2023-05-19T02:17:22.046Z,101321.44
2023-05-19T02:19:28.501Z,101325.19
2023-05-19T02:21:32.699Z,101322.41
2023-05-19T02:23:35.940Z,101324.97
2023-05-19T02:25:39.617Z,101321.38
2023-05-19T02:27:45.755Z,101321.47
2023-05-19T02:29:49.252Z,101324.06
2023-05-19T02:31:52.250Z,101318.72
2023-05-19T02:33:55.610Z,101321.88
2023-05-19T02:36:01.790Z,101326.06
2023-05-19T02:38:05.295Z,101321.63
2023-05-19T02:40:11.038Z,101323.44
2023-05-19T02:42:17.729Z,101321.94
2023-05-19T02:44:21.997Z,101321.50
2023-05-19T02:46:25.675Z,101323.78
2023-05-19T02:48:30.771Z,101324.19
2023-05-19T02:50:34.053Z,101319.13
2023-05-19T02:52:39.765Z,101313.34
2023-05-19T02:57:58.553Z,101324.28
2023-05-19T03:00:01.843Z,101321.34
2023-05-19T03:02:05.257Z,101323.22
2023-05-19T03:04:08.478Z,101329.41
2023-05-19T03:06:11.671Z,101327.34
2023-05-19T03:08:16.014Z,101323.13
2023-05-19T03:10:18.977Z,101321.47
2023-05-19T03:12:22.208Z,101320.16
2023-05-19T03:14:25.108Z,101316.50
2023-05-19T03:16:28.484Z,101314.72
2023-05-19T03:18:31.771Z,101307.06
2023-05-19T03:20:34.768Z,101317.00
2023-05-19T03:22:37.876Z,101313.16
2023-05-19T03:24:42.200Z,101308.34
2023-05-19T03:26:46.478Z,101312.81
2023-05-19T03:28:49.948Z,101312.56
2023-05-19T03:30:53.196Z,101316.22
2023-05-19T03:33:01.780Z,101311.16
2023-05-19T03:35:05.597Z,101314.66
2023-05-19T03:37:10.679Z,101319.63
2023-05-19T03:39:14.559Z,101314.13
2023-05-19T03:41:18.951Z,101320.16
2023-05-19T03:43:22.361Z,101320.75
2023-05-19T03:45:31.341Z,101327.88
2023-05-19T03:47:35.771Z,101335.97
2023-05-19T03:49:58.706Z,101323.19
2023-05-19T03:52:20.300Z,101328.28
2023-05-19T03:54:31.835Z,101333.41
2023-05-19T03:56:41.033Z,101324.56
2023-05-19T03:58:45.104Z,101324.59
2023-05-19T04:00:48.098Z,101328.94
2023-05-19T04:02:51.301Z,101321.06
2023-05-19T04:04:54.559Z,101325.56
2023-05-19T04:06:58.054Z,101316.59
2023-05-19T04:09:01.228Z,101317.56
2023-05-19T04:11:04.337Z,101313.06
2023-05-19T04:13:11.520Z,101321.69
2023-05-19T04:15:16.747Z,101318.09
2023-05-19T04:17:21.958Z,101328.78
2023-05-19T04:19:26.857Z,101337.63
2023-05-19T04:21:31.851Z,101337.44
2023-05-19T04:23:38.312Z,101331.59
2023-05-19T04:25:44.452Z,101339.78
2023-05-19T04:27:49.438Z,101330.75
2023-05-19T04:30:04.342Z,101334.41
2023-05-19T04:32:09.484Z,101336.28
2023-05-19T04:34:13.260Z,101328.81
2023-05-19T04:36:20.978Z,101325.78
2023-05-19T04:38:25.621Z,101325.50
2023-05-19T04:40:31.748Z,101322.84
2023-05-19T04:42:38.545Z,101329.31
2023-05-19T04:44:43.784Z,101315.91
2023-05-19T04:46:54.339Z,101322.56
2023-05-19T04:49:03.562Z,101320.53
2023-05-19T04:51:07.759Z,101317.72
2023-05-19T04:53:14.579Z,101322.13
2023-05-19T04:55:18.306Z,101327.41
2023-05-19T04:57:24.484Z,101320.69
2023-05-19T04:59:34.420Z,101322.47
2023-05-19T05:01:40.576Z,101323.63
2023-05-19T05:03:48.101Z,101320.16
2023-05-19T05:05:53.041Z,101313.53
2023-05-19T05:07:59.232Z,101309.66
2023-05-19T05:10:07.201Z,101307.97
2023-05-19T05:12:13.263Z,101306.94
2023-05-19T05:14:20.472Z,101300.09
2023-05-19T05:16:30.574Z,101301.69
2023-05-19T05:18:38.683Z,101303.47
2023-05-19T05:20:46.267Z,101298.03
2023-05-19T05:22:51.484Z,101308.13
2023-05-19T05:24:57.247Z,101302.78
2023-05-19T05:27:03.573Z,101293.47
2023-05-19T05:29:11.372Z,101289.03
2023-05-19T05:31:30.103Z,101289.50
2023-05-19T05:33:33.979Z,101284.50
2023-05-19T05:35:40.630Z,101283.44
2023-05-19T05:37:52.316Z,101282.84
2023-05-19T05:39:57.050Z,101286.19
2023-05-19T05:42:01.591Z,101283.13
2023-05-19T05:44:05.550Z,101274.00
2023-05-19T05:46:09.164Z,101276.28
2023-05-19T05:48:13.226Z,101281.75
2023-05-19T05:50:19.927Z,101278.97
2023-05-19T05:52:29.769Z,101272.03
2023-05-19T05:54:35.205Z,101275.72
2023-05-19T05:56:38.914Z,101281.59
2023-05-19T05:58:45.362Z,101277.88
2023-05-19T06:00:49.431Z,101271.97
2023-05-19T06:02:53.295Z,101275.13
2023-05-19T06:04:56.827Z,101272.91
2023-05-19T06:07:01.745Z,101278.53
2023-05-19T06:09:09.021Z,101277.28
2023-05-19T06:11:13.367Z,101278.16
2023-05-19T06:13:22.296Z,101271.88
2023-05-19T06:15:25.505Z,101275.66
2023-05-19T06:17:47.671Z,101274.72
2023-05-19T06:19:50.884Z,101269.25
2023-05-19T06:21:53.946Z,101273.13
2023-05-19T06:23:56.929Z,101264.38
2023-05-19T06:26:00.010Z,101261.88
2023-05-19T06:28:06.014Z,101270.69
2023-05-19T06:30:10.996Z,101265.06
2023-05-19T06:32:24.594Z,101261.72
2023-05-19T06:34:28.222Z,101267.13
2023-05-19T06:36:31.446Z,101260.56
2023-05-19T06:38:35.626Z,101250.84
2023-05-19T06:40:38.883Z,101250.50
2023-05-19T06:42:41.870Z,101253.81
2023-05-19T06:44:54.566Z,101254.59
2023-05-19T06:46:57.557Z,101259.09
2023-05-19T06:49:00.805Z,101257.03
2023-05-19T06:51:10.187Z,101267.72
2023-05-19T06:53:18.090Z,101261.00
2023-05-19T06:55:21.561Z,101261.78
2023-05-19T06:57:27.299Z,101255.16
2023-05-19T06:59:30.404Z,101256.06
2023-05-19T07:01:35.250Z,101264.69
2023-05-19T07:03:41.968Z,101251.34
2023-05-19T07:05:48.049Z,101257.16
2023-05-19T07:07:51.377Z,101258.88
2023-05-19T07:09:59.358Z,101258.44
2023-05-19T07:12:03.579Z,101265.91
2023-05-19T07:14:09.760Z,101259.81
2023-05-19T07:16:12.851Z,101263.84
2023-05-19T07:18:17.650Z,101252.56
2023-05-19T07:20:20.893Z,101246.22
2023-05-19T07:22:24.858Z,101247.69
2023-05-19T07:24:28.044Z,101251.19
2023-05-19T07:26:31.118Z,101240.31
2023-05-19T07:28:35.659Z,101242.38
2023-05-19T07:30:39.081Z,101238.13
2023-05-19T07:32:42.397Z,101243.47
2023-05-19T07:34:46.939Z,101247.28
2023-05-19T07:36:50.338Z,101238.34
2023-05-19T07:38:53.922Z,101243.50
2023-05-19T07:40:57.058Z,101241.03
2023-05-19T07:43:00.456Z,101245.19
2023-05-19T07:45:04.360Z,101250.03
2023-05-19T07:47:07.389Z,101243.19
2023-05-19T07:49:10.564Z,101246.59
2023-05-19T07:51:16.287Z,101244.75
2023-05-19T07:53:19.532Z,101241.19
2023-05-19T07:55:23.388Z,101240.59
2023-05-19T07:57:26.821Z,101245.34
2023-05-19T07:59:29.907Z,101239.06
2023-05-19T08:01:33.533Z,101235.78
2023-05-19T08:03:37.324Z,101229.31
2023-05-19T08:05:40.690Z,101241.59
2023-05-19T08:07:45.249Z,101233.56
2023-05-19T08:09:48.231Z,101234.09
2023-05-19T08:11:51.247Z,101236.09
2023-05-19T08:13:54.392Z,101240.19
2023-05-19T08:16:00.119Z,101237.75
2023-05-19T08:18:03.589Z,101235.91
2023-05-19T08:20:08.735Z,101222.78
2023-05-19T08:22:11.679Z,101230.53
2023-05-19T08:24:16.509Z,101226.78
2023-05-19T08:26:20.295Z,101226.44
2023-05-19T08:28:23.660Z,101227.88
2023-05-19T08:30:26.661Z,101223.06
2023-05-19T08:32:29.962Z,101224.66
2023-05-19T08:34:33.755Z,101223.03
2023-05-19T08:36:36.748Z,101214.38
2023-05-19T08:38:39.644Z,101216.16
2023-05-19T08:40:44.632Z,101209.75
2023-05-19T08:42:48.058Z,101206.53
2023-05-19T08:44:51.694Z,101211.25
2023-05-19T08:46:56.096Z,101208.53
2023-05-19T08:49:03.206Z,101200.56
2023-05-19T08:51:13.575Z,101208.19
2023-05-19T08:53:33.338Z,101196.72
2023-05-19T08:55:41.180Z,101188.03
2023-05-19T08:57:46.569Z,101188.16
2023-05-19T08:59:50.097Z,101177.47
2023-05-19T09:01:53.846Z,101181.34
2023-05-19T09:03:57.469Z,101187.84
2023-05-19T09:06:00.847Z,101179.72
2023-05-19T09:08:04.998Z,101178.84
2023-05-19T09:10:09.276Z,101184.03
2023-05-19T09:12:12.476Z,101195.00
2023-05-19T09:14:16.785Z,101191.41
2023-05-19T09:16:20.187Z,101184.75
2023-05-19T09:18:23.492Z,101187.31
2023-05-19T09:20:26.428Z,101180.56
2023-05-19T09:22:30.658Z,101184.63
2023-05-19T09:24:35.146Z,101176.91
2023-05-19T09:26:40.109Z,101173.88
2023-05-19T09:28:43.125Z,101177.44
2023-05-19T09:30:47.477Z,101166.78
2023-05-19T09:32:50.552Z,101173.66
2023-05-19T09:34:54.634Z,101164.22
2023-05-19T09:36:58.045Z,101178.44
2023-05-19T09:39:01.332Z,101167.94
2023-05-19T09:41:06.988Z,101179.22
2023-05-19T09:43:10.106Z,101162.06
2023-05-19T09:45:13.189Z,101167.38
2023-05-19T09:47:18.074Z,101168.31
2023-05-19T09:49:22.808Z,101164.78
2023-05-19T09:51:25.884Z,101148.59
2023-05-19T09:53:31.020Z,101154.97
2023-05-19T09:55:34.533Z,101144.28
2023-05-19T09:57:40.174Z,101142.19
2023-05-19T09:59:43.633Z,101147.44
2023-05-19T10:01:47.347Z,101142.97
2023-05-19T10:03:52.287Z,101152.00
2023-05-19T10:05:55.261Z,101144.28
2023-05-19T10:07:58.776Z,101137.38
2023-05-19T10:10:03.968Z,101127.59
2023-05-19T10:12:09.306Z,101130.47
2023-05-19T10:14:12.363Z,101125.13
2023-05-19T10:16:17.392Z,101131.41
2023-05-19T10:18:21.019Z,101127.41
2023-05-19T10:20:25.648Z,101133.41
2023-05-19T10:22:29.652Z,101132.31
2023-05-19T10:24:32.712Z,101138.03
2023-05-19T10:26:36.290Z,101126.56
2023-05-19T10:28:41.199Z,101128.59
2023-05-19T10:30:46.149Z,101134.06
2023-05-19T10:32:49.763Z,101140.16
2023-05-19T10:35:13.375Z,101129.78
2023-05-19T10:37:22.826Z,101140.47
2023-05-19T10:39:27.886Z,101144.66
2023-05-19T10:41:38.160Z,101132.81
2023-05-19T10:43:49.801Z,101128.19
2023-05-19T10:45:54.870Z,101126.31
2023-05-19T10:47:58.025Z,101117.59
2023-05-19T10:50:02.077Z,101112.56
2023-05-19T10:52:05.915Z,101126.09
2023-05-19T10:54:13.651Z,101122.84
2023-05-19T10:56:32.831Z,101119.44
2023-05-19T10:58:50.655Z,101129.19
2023-05-19T11:01:01.592Z,101111.13
2023-05-19T11:03:14.943Z,101121.06
2023-05-19T11:05:19.585Z,101110.75
2023-05-19T11:07:24.670Z,101110.63
2023-05-19T11:09:41.746Z,101108.63
2023-05-19T11:11:47.291Z,101108.34
2023-05-19T11:13:52.818Z,101105.16
2023-05-19T11:15:57.367Z,101115.88
2023-05-19T11:18:02.780Z,101117.56
2023-05-19T11:20:09.964Z,101101.91
2023-05-19T11:22:14.289Z,101096.56
2023-05-19T11:24:38.131Z,101094.91
2023-05-19T11:26:42.786Z,101107.09
2023-05-19T11:28:47.764Z,101100.91
2023-05-19T11:30:52.288Z,101099.75
2023-05-19T11:32:55.862Z,101098.47
2023-05-19T11:34:59.258Z,101096.66
2023-05-19T11:37:02.990Z,101100.00
2023-05-19T11:39:08.714Z,101090.25
2023-05-19T11:41:13.567Z,101093.75
2023-05-19T11:43:16.643Z,101074.16
2023-05-19T11:45:25.791Z,101074.63
2023-05-19T11:47:31.999Z,101090.28
2023-05-19T11:49:46.981Z,101092.09
2023-05-19T11:51:51.528Z,101083.91
2023-05-19T11:53:54.805Z,101081.13
2023-05-19T11:55:57.745Z,101079.16
2023-05-19T11:58:05.968Z,101074.94
2023-05-19T12:00:12.803Z,101072.19
2023-05-19T12:02:20.974Z,101075.13
2023-05-19T12:04:24.147Z,101085.34
2023-05-19T12:06:27.399Z,101074.16
2023-05-19T12:08:30.959Z,101071.28
2023-05-19T12:10:37.768Z,101076.31
2023-05-19T12:12:46.072Z,101071.00
2023-05-19T12:15:01.168Z,101068.50
2023-05-19T12:17:25.538Z,101061.22
2023-05-19T12:19:31.253Z,101058.97
2023-05-19T12:21:34.770Z,101067.34
2023-05-19T12:23:42.579Z,101061.22
2023-05-19T12:25:45.642Z,101054.56
2023-05-19T12:27:56.145Z,101051.69
2023-05-19T12:30:02.146Z,101043.22
2023-05-19T12:32:05.943Z,101059.63
2023-05-19T12:34:09.906Z,101054.84
2023-05-19T12:36:14.426Z,101057.00
2023-05-19T12:38:17.558Z,101040.16
2023-05-19T12:40:22.335Z,101036.41
2023-05-19T12:42:30.994Z,101038.75
2023-05-19T12:44:38.401Z,101031.94
2023-05-19T12:46:44.238Z,101027.69
2023-05-19T12:48:48.117Z,101019.38
2023-05-19T12:50:53.875Z,101019.75
2023-05-19T12:53:00.427Z,101026.13
2023-05-19T12:55:09.428Z,101031.84
2023-05-19T12:57:13.880Z,101035.22
2023-05-19T12:59:38.436Z,101017.13
2023-05-19T13:01:46.834Z,101031.69
2023-05-19T13:03:51.065Z,101022.22
2023-05-19T13:05:59.584Z,101023.72
2023-05-19T13:08:03.977Z,101006.81
2023-05-19T13:10:08.171Z,101028.34
2023-05-19T13:12:11.521Z,101016.91
2023-05-19T13:14:19.054Z,101021.00
2023-05-19T13:16:23.434Z,101017.56
2023-05-19T13:18:28.384Z,101006.88
2023-05-19T13:20:31.904Z,101002.78
2023-05-19T13:22:35.864Z,101003.31
2023-05-19T13:24:38.942Z,101014.91
2023-05-19T13:26:42.269Z,101030.31
2023-05-19T13:28:45.323Z,101022.31
2023-05-19T13:30:49.592Z,101020.25
2023-05-19T13:32:53.505Z,101013.06
2023-05-19T13:34:58.719Z,101014.09
2023-05-19T13:37:02.022Z,101013.09
2023-05-19T13:39:05.466Z,101014.47
2023-05-19T13:41:16.049Z,101013.25
2023-05-19T13:43:19.253Z,101016.41
2023-05-19T13:45:23.607Z,101016.44
2023-05-19T13:47:28.283Z,101018.88
2023-05-19T13:49:31.247Z,101023.72
2023-05-19T13:51:38.418Z,101016.19
2023-05-19T13:53:43.568Z,101008.09
2023-05-19T13:55:47.020Z,101001.75
2023-05-19T13:57:51.638Z,100999.69
2023-05-19T14:00:02.746Z,100994.34
2023-05-19T14:02:15.268Z,100984.03
2023-05-19T14:04:20.413Z,100992.94
2023-05-19T14:06:24.921Z,100992.47
2023-05-19T14:08:29.515Z,100993.94
2023-05-19T14:10:32.770Z,100990.44
2023-05-19T14:12:55.001Z,101000.44
2023-05-19T14:15:02.557Z,100990.75
2023-05-19T14:17:06.380Z,100986.88
2023-05-19T14:19:10.109Z,101001.88
2023-05-19T14:21:13.655Z,100995.16
2023-05-19T14:23:17.849Z,100997.19
2023-05-19T14:25:22.248Z,100996.34
2023-05-19T14:27:25.414Z,100985.09
2023-05-19T14:29:31.079Z,100997.06
2023-05-19T14:31:34.519Z,100999.22
2023-05-19T14:33:40.126Z,100998.94
2023-05-19T14:35:43.146Z,100990.25
2023-05-19T14:37:46.453Z,100997.44
2023-05-19T14:39:49.781Z,100989.47
2023-05-19T14:41:54.166Z,100990.22
2023-05-19T14:43:57.158Z,100991.88
2023-05-19T14:46:00.381Z,100995.94
2023-05-19T14:48:03.597Z,100988.66
2023-05-19T14:50:07.804Z,100994.50
2023-05-19T14:52:10.891Z,101007.28
2023-05-19T14:54:14.028Z,101009.84
2023-05-19T14:56:17.046Z,100996.25
2023-05-19T14:58:29.044Z,100998.81
2023-05-19T15:00:32.514Z,100993.84
2023-05-19T15:02:36.037Z,100994.78
2023-05-19T15:04:39.666Z,100993.69
2023-05-19T15:06:44.373Z,100994.81
2023-05-19T15:08:49.592Z,100989.97
2023-05-19T15:10:53.007Z,100987.72
2023-05-19T15:12:57.536Z,100982.41
2023-05-19T15:15:02.946Z,100970.75
2023-05-19T15:17:06.387Z,100983.81
2023-05-19T15:19:09.868Z,100973.81
2023-05-19T15:21:17.187Z,100986.75
2023-05-19T15:23:20.395Z,100975.75
2023-05-19T15:25:23.765Z,100978.09
2023-05-19T15:27:27.613Z,100980.34
2023-05-19T15:29:30.602Z,100979.53
2023-05-19T15:31:37.387Z,100979.19
2023-05-19T15:33:41.179Z,100973.63
2023-05-19T15:35:44.225Z,100978.53
2023-05-19T15:37:47.213Z,100978.19
2023-05-19T15:39:50.164Z,100971.25
2023-05-19T15:41:53.139Z,100979.53
2023-05-19T15:43:56.121Z,100978.47
2023-05-19T15:45:59.137Z,100971.28
2023-05-19T15:48:03.833Z,100963.72
2023-05-19T15:50:08.166Z,100968.28
2023-05-19T15:52:11.128Z,100962.53
2023-05-19T15:54:14.155Z,100960.72
2023-05-19T15:56:19.185Z,100964.91
2023-05-19T15:58:22.407Z,100966.59
2023-05-19T16:00:25.471Z,100953.66
2023-05-19T16:02:28.694Z,100964.41
2023-05-19T16:04:33.380Z,100965.03
2023-05-19T16:06:36.458Z,100959.41
2023-05-19T16:08:39.838Z,100962.25
2023-05-19T16:10:42.868Z,100949.22
2023-05-19T16:12:45.890Z,100958.38
2023-05-19T16:14:49.534Z,100959.91
2023-05-19T16:16:52.836Z,100945.88
2023-05-19T16:18:56.026Z,100949.84
2023-05-19T16:21:00.759Z,100949.59
2023-05-19T16:23:04.266Z,100950.22
2023-05-19T16:25:09.244Z,100946.97
2023-05-19T16:27:12.425Z,100941.31
2023-05-19T16:29:16.642Z,100941.09
2023-05-19T16:31:19.882Z,100938.53
2023-05-19T16:33:23.012Z,100941.22
2023-05-19T16:35:27.839Z,100937.84
2023-05-19T16:37:32.274Z,100937.59
2023-05-19T16:39:37.512Z,100928.59
2023-05-19T16:41:40.490Z,100924.31
2023-05-19T16:43:43.744Z,100921.25
2023-05-19T16:45:46.928Z,100926.63
2023-05-19T16:47:50.245Z,100929.19
2023-05-19T16:49:53.259Z,100923.31
2023-05-19T16:51:56.727Z,100923.09
2023-05-19T16:54:01.084Z,100927.78
2023-05-19T16:56:04.522Z,100933.84
2023-05-19T16:58:08.009Z,100917.00
2023-05-19T17:00:15.035Z,100938.38
2023-05-19T17:02:18.152Z,100930.41
2023-05-19T17:04:21.283Z,100917.00
2023-05-19T17:06:24.295Z,100929.59
2023-05-19T17:08:27.498Z,100927.69
2023-05-19T17:10:32.310Z,100920.63
2023-05-19T17:12:36.386Z,100920.47
2023-05-19T17:14:42.319Z,100917.00
2023-05-19T17:16:45.572Z,100925.38
2023-05-19T17:18:49.026Z,100924.66
2023-05-19T17:20:52.656Z,100926.47
2023-05-19T17:22:55.820Z,100921.56
2023-05-19T17:24:59.033Z,100925.66
2023-05-19T17:27:03.549Z,100919.06
2023-05-19T17:29:06.854Z,100921.09
2023-05-19T17:31:13.548Z,100923.09
2023-05-19T17:33:16.714Z,100926.28
2023-05-19T17:35:20.153Z,100921.75
2023-05-19T17:37:25.735Z,100923.91
2023-05-19T17:39:29.072Z,100917.03
2023-05-19T17:41:32.219Z,100926.69
2023-05-19T17:43:37.137Z,100922.13
2023-05-19T17:45:40.316Z,100919.97
2023-05-19T17:47:43.343Z,100933.81
2023-05-19T17:49:46.579Z,100927.56
2023-05-19T17:51:50.376Z,100929.22
2023-05-19T17:53:54.029Z,100929.72
2023-05-19T17:56:01.624Z,100937.25
2023-05-19T17:58:05.133Z,100940.72
2023-05-19T18:00:11.859Z,100939.38
2023-05-19T18:02:16.060Z,100934.13
2023-05-19T18:04:19.955Z,100938.34
2023-05-19T18:06:24.359Z,100942.38
2023-05-19T18:08:28.053Z,100950.81
2023-05-19T18:10:32.086Z,100947.56
2023-05-19T18:12:35.702Z,100946.25
2023-05-19T18:14:38.881Z,100947.94
2023-05-19T18:16:43.578Z,100949.00
2023-05-19T18:18:50.423Z,100948.38
2023-05-19T18:21:28.366Z,100954.78
2023-05-19T18:23:31.854Z,100950.38
2023-05-19T18:25:34.901Z,100956.38
2023-05-19T18:27:38.383Z,100956.50
2023-05-19T18:29:41.745Z,100952.19
2023-05-19T18:31:46.173Z,100953.88
2023-05-19T18:33:49.470Z,100955.38
2023-05-19T18:35:52.445Z,100954.72
2023-05-19T18:37:57.589Z,100954.28
2023-05-19T18:40:04.338Z,100957.50
2023-05-19T18:42:07.888Z,100955.28
2023-05-19T18:44:12.559Z,100954.84
2023-05-19T18:46:15.586Z,100953.75
2023-05-19T18:48:21.146Z,100965.66
2023-05-19T18:50:26.123Z,100966.16
2023-05-19T18:52:30.844Z,100968.44
2023-05-19T18:54:33.963Z,100969.19
2023-05-19T18:56:37.479Z,100969.19
2023-05-19T18:58:40.770Z,100964.13
2023-05-19T19:00:43.914Z,100979.25
2023-05-19T19:02:48.210Z,100977.50
2023-05-19T19:04:52.711Z,100980.94
2023-05-19T19:06:55.997Z,100981.84
2023-05-19T19:08:58.959Z,100981.72
2023-05-19T19:11:02.154Z,100980.13
2023-05-19T19:13:05.145Z,100986.84
2023-05-19T19:15:11.343Z,100990.06
2023-05-19T19:17:14.498Z,100990.28
2023-05-19T19:19:17.622Z,100990.94
2023-05-19T19:21:23.973Z,100991.22
2023-05-19T19:23:27.030Z,100994.66
2023-05-19T19:25:30.175Z,100996.94
2023-05-19T19:27:35.553Z,100998.69
2023-05-19T19:29:38.627Z,101003.06
2023-05-19T19:31:41.807Z,101008.59
2023-05-19T19:33:45.085Z,101011.09
2023-05-19T19:35:48.109Z,101012.34
2023-05-19T19:37:52.775Z,101009.56
2023-05-19T19:39:55.767Z,101012.97
2023-05-19T19:41:59.119Z,101014.84
2023-05-19T19:44:02.221Z,101019.88
2023-05-19T19:46:07.095Z,101017.50
2023-05-19T19:48:10.617Z,101015.56
2023-05-19T19:50:14.138Z,101031.59
2023-05-19T19:52:17.996Z,101029.31
2023-05-19T19:54:22.525Z,101027.78
2023-05-19T19:56:27.408Z,101028.34
2023-05-19T19:58:31.158Z,101024.72
2023-05-19T20:00:34.466Z,101020.41
2023-05-19T20:02:48.303Z,101025.06
2023-05-19T20:04:58.664Z,101015.88
2023-05-19T20:07:01.848Z,101021.22
2023-05-19T20:09:05.558Z,101016.25
2023-05-19T20:11:10.843Z,101020.56
2023-05-19T20:13:14.144Z,101029.94
2023-05-19T20:15:17.459Z,101016.00
2023-05-19T20:17:20.409Z,101020.91
2023-05-19T20:19:25.451Z,101024.56
2023-05-19T20:21:28.541Z,101026.16
2023-05-19T20:23:31.815Z,101023.22
2023-05-19T20:25:35.218Z,101025.16
2023-05-19T20:27:39.930Z,101033.66
2023-05-19T20:29:43.031Z,101038.13
2023-05-19T20:31:46.624Z,101031.22
2023-05-19T20:33:49.689Z,101028.56
2023-05-19T20:35:52.836Z,101034.09
2023-05-19T20:37:56.913Z,101032.03
2023-05-19T20:39:59.896Z,101044.03
2023-05-19T20:42:03.159Z,101034.19
2023-05-19T20:44:08.443Z,101040.22
2023-05-19T20:46:11.936Z,101046.06
2023-05-19T20:48:15.976Z,101050.75
2023-05-19T20:50:19.467Z,101039.16
2023-05-19T20:52:22.648Z,101046.09
2023-05-19T20:54:26.834Z,101038.66
2023-05-19T20:56:30.175Z,101043.97
2023-05-19T20:58:33.669Z,101039.56
2023-05-19T21:00:38.222Z,101048.78
2023-05-19T21:02:41.619Z,101043.44
2023-05-19T21:04:46.273Z,101044.81
2023-05-19T21:06:49.413Z,101043.38
2023-05-19T21:08:52.685Z,101046.75
2023-05-19T21:10:55.920Z,101043.53
2023-05-19T21:12:58.906Z,101050.50
2023-05-19T21:15:03.909Z,101044.75
2023-05-19T21:17:08.673Z,101042.59
2023-05-19T21:19:11.807Z,101043.69
2023-05-19T21:21:15.509Z,101042.00
2023-05-19T21:23:18.723Z,101050.69
2023-05-19T21:25:21.700Z,101051.19
2023-05-19T21:27:24.977Z,101046.38
2023-05-19T21:29:28.142Z,101047.41
2023-05-19T21:31:31.447Z,101043.19
2023-05-19T21:33:35.965Z,101053.59
2023-05-19T21:35:39.335Z,101045.69
2023-05-19T21:37:42.271Z,101047.66
2023-05-19T21:39:45.753Z,101049.56
2023-05-19T21:41:48.765Z,101044.84
2023-05-19T21:43:51.795Z,101045.69
2023-05-19T21:45:58.234Z,101047.91
2023-05-19T21:48:01.777Z,101050.66
2023-05-19T21:50:09.142Z,101050.84
2023-05-19T21:52:12.262Z,101055.56
2023-05-19T21:54:18.169Z,101053.63
2023-05-19T21:56:24.243Z,101051.34
2023-05-19T21:58:28.534Z,101046.59
2023-05-19T22:00:32.250Z,101046.59
2023-05-19T22:02:37.704Z,101055.16
2023-05-19T22:04:41.908Z,101047.84
2023-05-19T22:06:53.277Z,101045.34
2023-05-19T22:08:59.372Z,101041.13
2023-05-19T22:11:10.680Z,101040.41
2023-05-19T22:13:17.415Z,101038.03
2023-05-19T22:15:26.239Z,101041.34
2023-05-19T22:17:32.112Z,101034.38
2023-05-19T22:19:36.658Z,101046.75
2023-05-19T22:21:42.398Z,101042.38
2023-05-19T22:23:49.288Z,101046.91
2023-05-19T22:25:54.726Z,101049.00
2023-05-19T22:27:58.948Z,101036.69
2023-05-19T22:30:03.618Z,101039.53
2023-05-19T22:32:12.251Z,101038.75
2023-05-19T22:34:22.044Z,101042.56
2023-05-19T22:36:26.317Z,101046.28
2023-05-19T22:38:32.804Z,101050.97
2023-05-19T22:40:40.795Z,101051.91
2023-05-19T22:42:44.120Z,101050.19
2023-05-19T22:44:50.145Z,101046.03
2023-05-19T22:46:54.375Z,101046.09
2023-05-19T22:49:02.451Z,101049.22
2023-05-19T22:51:06.599Z,101038.66
2023-05-19T22:53:11.419Z,101047.81
2023-05-19T22:55:15.716Z,101049.84
2023-05-19T22:57:21.347Z,101042.19
2023-05-19T22:59:24.683Z,101047.50
2023-05-19T23:01:29.510Z,101041.72
2023-05-19T23:03:33.356Z,101038.25
2023-05-19T23:05:39.224Z,101040.44
2023-05-19T23:07:43.960Z,101037.19
2023-05-19T23:09:50.775Z,101044.63
2023-05-19T23:11:58.025Z,101043.34
2023-05-19T23:14:02.705Z,101044.69
2023-05-19T23:16:10.173Z,101044.06
2023-05-19T23:18:15.333Z,101039.72
2023-05-19T23:20:19.282Z,101045.66
2023-05-19T23:22:22.901Z,101042.75
2023-05-19T23:24:26.726Z,101049.38
2023-05-19T23:26:32.741Z,101049.78
2023-05-19T23:28:37.576Z,101041.44
2023-05-19T23:30:49.683Z,101042.50
2023-05-19T23:32:53.238Z,101038.25
2023-05-19T23:34:56.531Z,101041.72
2023-05-19T23:36:59.788Z,101033.88
2023-05-19T23:39:05.132Z,101034.88
2023-05-19T23:41:10.498Z,101036.78
2023-05-19T23:43:14.255Z,101042.25
2023-05-19T23:45:20.366Z,101039.44
2023-05-19T23:47:29.961Z,101049.41
2023-05-19T23:49:35.492Z,101049.69
2023-05-19T23:51:38.592Z,101057.81
2023-05-19T23:53:43.180Z,101041.81